Time;durP1;ratioP1;P1;durP2;ratioP2;P2;SDS_P1;SDS_P2;PMS_P1;PMS_P2;Temp;Humidity;BMP_temperature;BMP_pressure;BME280_temperature;BME280_humidity;BME280_pressure;Samples;Min_cycle;Max_cycle;Signal;HPM_P1;HPM_P2
2021/12/24 00:02:24;;;;;;;12.45;8.33;;;-3.10;77.50;;;;;;1872734;76;21098;-41
2021/12/24 00:04:53;;;;;;;12.40;7.75;;;-3.10;77.90;;;;;;1872722;76;21007;-42
2021/12/24 00:07:23;;;;;;;14.78;9.03;;;-3.20;77.80;;;;;;1872830;77;21100;-42
2021/12/24 00:09:52;;;;;;;15.25;8.23;;;-3.20;77.90;;;;;;1872744;76;21007;-42
2021/12/24 00:12:23;;;;;;;13.18;7.95;;;-3.20;77.90;;;;;;1872800;76;21500;-43
2021/12/24 00:14:57;;;;;;;16.27;9.45;;;-3.20;77.70;;;;;;1872725;76;21537;-42
2021/12/24 00:17:25;;;;;;;11.45;8.15;;;-3.20;77.90;;;;;;1872516;76;21438;-42
2021/12/24 00:36:26;;;;;;;13.95;8.90;;;-3.10;77.90;;;;;;1889586;75;21139;-42
2021/12/24 00:38:57;;;;;;;19.85;8.10;;;-3.10;77.90;;;;;;1891537;75;21107;-42
2021/12/24 00:41:26;;;;;;;12.63;8.28;;;-3.10;77.90;;;;;;1891638;76;21030;-42
2021/12/24 00:43:56;;;;;;;15.83;9.85;;;-3.10;78.00;;;;;;1891604;75;21023;-41
2021/12/24 00:46:25;;;;;;;12.15;8.58;;;-3.10;77.90;;;;;;1891592;76;21135;-41
2021/12/24 00:48:55;;;;;;;14.85;9.35;;;-3.10;77.50;;;;;;1891587;75;21092;-42
2021/12/24 00:51:32;;;;;;;13.98;8.65;;;-3.20;77.50;;;;;;1891563;75;21073;-43
2021/12/24 00:56:26;;;;;;;16.45;9.95;;;-3.40;77.50;;;;;;1891607;75;21027;-41
2021/12/24 00:58:56;;;;;;;13.88;9.88;;;-3.40;77.10;;;;;;1891744;76;21109;-42
2021/12/24 01:01:26;;;;;;;16.00;11.10;;;-3.50;77.40;;;;;;1891572;76;22170;-41
2021/12/24 01:03:55;;;;;;;15.32;9.60;;;-3.60;77.90;;;;;;1891628;75;21106;-41
2021/12/24 01:06:25;;;;;;;13.08;9.43;;;-3.50;78.20;;;;;;1891602;76;21160;-41
2021/12/24 01:08:56;;;;;;;13.53;8.48;;;-3.50;78.20;;;;;;1891595;76;21026;-42
2021/12/24 01:11:27;;;;;;;14.87;8.73;;;-3.50;78.30;;;;;;1891589;76;21077;-40
2021/12/24 01:13:57;;;;;;;18.90;8.25;;;-3.40;78.20;;;;;;1891568;75;21163;-41
2021/12/24 01:16:37;;;;;;;15.78;10.08;;;-3.40;78.20;;;;;;1871565;76;21022;-41
2021/12/24 01:19:15;;;;;;;12.35;9.13;;;-3.40;78.20;;;;;;1890963;75;21030;-41
2021/12/24 01:22:12;;;;;;;20.72;9.45;;;-3.40;78.10;;;;;;1888190;75;21554;-41
2021/12/24 01:24:29;;;;;;;9.90;7.45;;;-3.40;77.10;;;;;;1888621;75;21112;-41
2021/12/24 01:37:58;;;;;;;12.60;7.65;;;-3.50;77.90;;;;;;1836618;78;21152;-41
2021/12/24 01:40:26;;;;;;;7.92;6.20;;;-3.50;77.70;;;;;;1836805;78;21053;-42
2021/12/24 01:42:54;;;;;;;6.83;5.87;;;-3.50;78.00;;;;;;1863799;75;21025;-41
2021/12/24 01:45:26;;;;;;;8.33;5.37;;;-3.60;78.00;;;;;;1891877;75;21030;-41
2021/12/24 01:47:58;;;;;;;13.50;6.47;;;-3.50;77.70;;;;;;1891488;75;21006;-42
2021/12/24 01:50:29;;;;;;;8.45;6.00;;;-3.60;77.70;;;;;;1891693;75;21002;-41
2021/12/24 01:52:58;;;;;;;7.37;5.50;;;-3.60;76.90;;;;;;1891705;75;21022;-41
2021/12/24 01:55:29;;;;;;;10.72;7.22;;;-3.70;77.10;;;;;;1891497;75;21053;-41
2021/12/24 01:57:59;;;;;;;7.72;5.72;;;-3.80;76.80;;;;;;1891791;75;20998;-42
2021/12/24 02:00:31;;;;;;;9.30;5.90;;;-3.80;77.60;;;;;;1891747;75;21030;-41
2021/12/24 02:03:00;;;;;;;8.83;6.60;;;-3.80;78.00;;;;;;1891697;76;21030;-42
2021/12/24 02:05:31;;;;;;;9.70;5.80;;;-3.80;77.90;;;;;;1891704;75;21030;-42
2021/12/24 02:08:02;;;;;;;9.28;5.85;;;-3.70;78.00;;;;;;1891710;75;21046;-41
2021/12/24 02:10:31;;;;;;;8.10;6.25;;;-3.60;78.20;;;;;;1891732;75;21095;-41
2021/12/24 02:13:01;;;;;;;8.13;6.17;;;-3.60;77.20;;;;;;1891635;75;21046;-41
2021/12/24 02:28:14;;;;;;;8.13;5.67;;;-3.50;76.90;;;;;;1891673;75;21030;-41
2021/12/24 02:29:27;;;;;;;10.93;6.65;;;-3.40;78.10;;;;;;1891881;75;21027;-42
2021/12/24 02:31:57;;;;;;;13.50;6.97;;;-3.40;78.10;;;;;;1891816;75;20994;-42
2021/12/24 02:34:26;;;;;;;6.40;5.45;;;-3.30;78.10;;;;;;1891596;76;21160;-41
2021/12/24 02:36:55;;;;;;;5.30;4.05;;;-3.30;75.20;;;;;;1891660;75;21105;-41
2021/12/24 02:39:25;;;;;;;4.87;4.08;;;-3.40;75.30;;;;;;1891685;75;21163;-42
2021/12/24 02:41:54;;;;;;;9.93;4.92;;;-3.60;75.90;;;;;;1891640;76;21070;-41
2021/12/24 02:44:24;;;;;;;9.38;5.80;;;-3.80;77.10;;;;;;1891631;75;21034;-41
2021/12/24 02:55:13;;;;;;;12.35;5.47;;;-3.50;77.90;;;;;;1891542;76;21120;-42
2021/12/24 02:57:43;;;;;;;8.30;4.95;;;-3.50;78.00;;;;;;1891531;75;21010;-41
2021/12/24 03:00:19;;;;;;;9.00;6.22;;;-3.40;78.00;;;;;;1891488;75;21026;-41
2021/12/24 03:02:46;;;;;;;7.00;4.50;;;-3.40;78.00;;;;;;1891251;75;21151;-41
2021/12/24 03:05:17;;;;;;;6.60;5.35;;;-3.30;77.70;;;;;;1891599;76;21026;-41
2021/12/24 03:07:47;;;;;;;11.38;5.58;;;-3.30;77.60;;;;;;1891524;75;21026;-41
2021/12/24 03:10:20;;;;;;;10.08;4.95;;;-3.20;78.10;;;;;;1891633;76;21058;-41
2021/12/24 03:12:51;;;;;;;11.28;8.35;;;-3.20;77.70;;;;;;1891528;76;21087;-42
2021/12/24 03:15:24;;;;;;;9.75;7.12;;;-3.10;77.50;;;;;;1891633;76;21069;-42
2021/12/24 03:17:56;;;;;;;12.60;9.33;;;-3.10;77.80;;;;;;1891549;75;21033;-41
2021/12/24 03:20:24;;;;;;;14.95;9.75;;;-3.00;78.00;;;;;;1891407;75;21034;-41
2021/12/24 03:23:08;;;;;;;15.55;9.85;;;-3.00;78.10;;;;;;1891605;75;21094;-41
2021/12/24 03:25:35;;;;;;;10.85;6.17;;;-2.90;78.00;;;;;;1891200;75;21096;-41
2021/12/24 03:28:04;;;;;;;7.92;5.95;;;-2.90;76.20;;;;;;1891459;75;21030;-43
2021/12/24 03:30:34;;;;;;;8.18;5.67;;;-3.00;77.60;;;;;;1891632;75;21092;-42
2021/12/24 03:33:03;;;;;;;6.90;5.62;;;-3.00;77.00;;;;;;1891528;75;21084;-41
2021/12/24 03:35:33;;;;;;;6.65;4.95;;;-3.10;77.80;;;;;;1891541;76;21417;-42
2021/12/24 03:38:03;;;;;;;9.20;5.53;;;-3.10;78.00;;;;;;1891603;75;21054;-43
2021/12/24 03:40:33;;;;;;;8.23;5.05;;;-3.10;78.40;;;;;;1891655;75;21125;-42
2021/12/24 03:43:02;;;;;;;6.28;5.17;;;-3.00;78.40;;;;;;1891491;76;21449;-41
2021/12/24 03:45:56;;;;;;;7.00;4.97;;;-2.90;78.50;;;;;;1891710;76;21112;-42
2021/12/24 03:48:23;;;;;;;7.97;5.72;;;-2.90;78.30;;;;;;1889379;75;21066;-41
2021/12/24 03:51:01;;;;;;;6.70;5.67;;;-2.80;78.30;;;;;;1890125;75;21155;-42
2021/12/24 03:56:09;;;;;;;8.95;5.08;;;-2.70;78.30;;;;;;1891525;75;21054;-41
2021/12/24 03:58:39;;;;;;;7.12;5.25;;;-2.80;78.30;;;;;;1891621;76;21034;-41
2021/12/24 04:01:26;;;;;;;6.97;5.28;;;-2.80;78.10;;;;;;1891535;76;21051;-41
2021/12/24 04:04:10;;;;;;;5.40;4.62;;;-2.80;77.90;;;;;;1854372;75;21050;-41
2021/12/24 04:06:52;;;;;;;7.78;5.12;;;-2.80;78.10;;;;;;1854368;75;21022;-41
2021/12/24 04:09:49;;;;;;;10.50;5.40;;;-2.80;78.30;;;;;;1891570;76;21480;-41
2021/12/24 04:12:21;;;;;;;12.07;6.40;;;-2.80;78.00;;;;;;1888600;76;21045;-41
2021/12/24 04:14:53;;;;;;;18.30;6.53;;;-2.70;78.10;;;;;;1891583;75;21022;-41
2021/12/24 04:17:23;;;;;;;9.38;6.17;;;-2.80;78.20;;;;;;1891668;75;21141;-42
2021/12/24 04:25:28;;;;;;;27.95;11.05;;;-2.80;78.00;;;;;;1891668;75;21120;-41
2021/12/24 04:27:59;;;;;;;27.15;15.60;;;-2.80;78.40;;;;;;1891629;75;21080;-41
2021/12/24 04:30:38;;;;;;;29.15;10.03;;;-2.80;78.40;;;;;;1891822;75;21516;-41
2021/12/24 04:33:01;;;;;;;11.50;6.92;;;-2.80;78.40;;;;;;1890625;75;21058;-42
2021/12/24 04:35:41;;;;;;;10.15;7.62;;;-2.80;78.20;;;;;;1891717;76;21159;-41
2021/12/24 04:51:33;;;;;;;11.70;6.65;;;-2.70;78.70;;;;;;1873070;76;21105;-42
2021/12/24 05:02:54;;;;;;;14.40;6.47;;;-2.70;78.50;;;;;;1872480;76;21057;-42
2021/12/24 05:05:10;;;;;;;11.53;7.55;;;-2.70;78.70;;;;;;1867378;76;21079;-42
2021/12/24 05:10:29;;;;;;;10.78;7.92;;;-2.70;78.70;;;;;;1872885;75;21115;-42
2021/12/24 05:12:55;;;;;;;7.78;5.92;;;-2.60;78.90;;;;;;1872815;76;21085;-41
2021/12/24 05:15:27;;;;;;;13.58;7.95;;;-2.70;78.00;;;;;;1872565;76;21035;-42
2021/12/24 05:19:01;;;;;;;26.82;7.83;;;-2.80;78.40;;;;;;1872906;76;21143;-41
2021/12/24 05:21:34;;;;;;;9.95;7.45;;;-2.80;78.60;;;;;;1869602;76;21116;-41
2021/12/24 05:24:16;;;;;;;10.55;7.42;;;-2.80;79.00;;;;;;1873015;76;21192;-41
2021/12/24 05:26:44;;;;;;;8.50;7.65;;;-2.80;79.00;;;;;;1872649;76;21031;-42
2021/12/24 05:29:15;;;;;;;11.33;7.62;;;-2.80;79.10;;;;;;1872527;76;21101;-42
2021/12/24 05:31:46;;;;;;;12.85;7.95;;;-2.80;78.80;;;;;;1872975;77;21019;-42
2021/12/24 05:34:18;;;;;;;19.27;8.58;;;-2.80;78.80;;;;;;1872859;76;21089;-41
2021/12/24 05:36:48;;;;;;;12.05;7.97;;;-2.80;78.80;;;;;;1872990;76;21112;-41
2021/12/24 05:39:18;;;;;;;20.10;8.80;;;-2.80;78.40;;;;;;1890031;75;21062;-41
2021/12/24 05:41:49;;;;;;;15.80;9.88;;;-2.90;78.40;;;;;;1891823;75;21021;-41
2021/12/24 05:44:19;;;;;;;15.83;8.75;;;-2.90;78.70;;;;;;1891647;75;21030;-42
2021/12/24 05:46:50;;;;;;;17.35;8.45;;;-2.90;79.00;;;;;;1891220;75;21049;-43
2021/12/24 05:49:24;;;;;;;11.90;7.53;;;-2.80;78.90;;;;;;1890374;75;21563;-43
2021/12/24 05:51:55;;;;;;;16.17;9.20;;;-2.80;78.60;;;;;;1888530;76;21123;-41
2021/12/24 05:54:34;;;;;;;12.65;7.72;;;-2.80;78.60;;;;;;1891074;75;21108;-41
2021/12/24 05:57:04;;;;;;;15.85;8.68;;;-2.80;78.90;;;;;;1891644;75;21038;-42
2021/12/24 05:59:33;;;;;;;12.47;8.23;;;-2.80;79.00;;;;;;1891750;75;21100;-42
2021/12/24 06:02:03;;;;;;;13.15;8.60;;;-2.70;79.00;;;;;;1891675;76;21087;-42
2021/12/24 06:04:32;;;;;;;15.95;9.13;;;-2.70;79.00;;;;;;1891815;75;21093;-42
2021/12/24 06:07:02;;;;;;;18.00;6.83;;;-2.60;79.20;;;;;;1891708;76;21034;-42
2021/12/24 06:09:31;;;;;;;13.88;8.83;;;-2.60;79.10;;;;;;1891783;76;21054;-42
2021/12/24 06:12:01;;;;;;;12.63;8.93;;;-2.50;79.10;;;;;;1891514;76;21121;-42
2021/12/24 06:14:30;;;;;;;14.40;9.18;;;-2.50;79.10;;;;;;1891670;75;21088;-41
2021/12/24 06:17:02;;;;;;;13.85;8.75;;;-2.40;79.30;;;;;;1891506;76;21112;-42
2021/12/24 06:19:31;;;;;;;28.70;13.40;;;-2.30;79.10;;;;;;1891559;75;21536;-41
2021/12/24 06:22:00;;;;;;;14.35;10.38;;;-2.30;78.70;;;;;;1891630;76;21026;-41
2021/12/24 06:24:30;;;;;;;11.45;8.45;;;-2.30;78.80;;;;;;1891550;75;21065;-42
2021/12/24 06:26:59;;;;;;;12.10;8.40;;;-2.30;78.10;;;;;;1891544;75;21116;-42
2021/12/24 06:29:29;;;;;;;15.85;9.30;;;-2.40;78.40;;;;;;1891597;76;21098;-41
2021/12/24 06:31:59;;;;;;;12.43;8.98;;;-2.50;78.30;;;;;;1891603;76;21096;-42
2021/12/24 06:34:30;;;;;;;13.32;7.83;;;-2.50;78.80;;;;;;1891558;75;21030;-41
2021/12/24 06:36:59;;;;;;;12.60;8.05;;;-2.60;77.70;;;;;;1891480;75;21014;-42
2021/12/24 06:39:29;;;;;;;11.18;7.83;;;-2.70;76.00;;;;;;1878109;75;21066;-42
2021/12/24 06:41:58;;;;;;;55.12;19.00;;;-2.80;78.30;;;;;;1872776;75;21039;-42
2021/12/24 06:44:27;;;;;;;17.48;8.23;;;-2.80;79.10;;;;;;1872773;76;21011;-42
2021/12/24 06:46:57;;;;;;;13.58;6.08;;;-2.80;78.30;;;;;;1872904;76;21132;-42
2021/12/24 06:49:26;;;;;;;15.65;6.15;;;-2.80;78.50;;;;;;1872784;77;21434;-41
2021/12/24 06:51:56;;;;;;;8.95;5.40;;;-2.70;79.20;;;;;;1872824;77;21160;-42
2021/12/24 06:54:25;;;;;;;9.05;5.47;;;-2.50;79.70;;;;;;1872907;76;21121;-41
2021/12/24 06:56:55;;;;;;;10.03;6.17;;;-2.40;79.30;;;;;;1872784;77;21019;-41
2021/12/24 06:59:24;;;;;;;7.25;5.47;;;-2.30;79.30;;;;;;1872856;76;21007;-41
2021/12/24 07:01:54;;;;;;;16.85;5.25;;;-2.10;78.90;;;;;;1872912;76;21097;-41
2021/12/24 07:04:23;;;;;;;4.60;4.08;;;-2.10;78.50;;;;;;1872808;76;21034;-41
2021/12/24 07:06:52;;;;;;;5.95;4.83;;;-2.00;77.80;;;;;;1872743;76;21034;-42
2021/12/24 07:09:22;;;;;;;8.15;4.75;;;-2.00;77.20;;;;;;1872826;76;21093;-43
2021/12/24 07:11:52;;;;;;;5.47;3.12;;;-2.00;77.50;;;;;;1872753;77;21089;-42
2021/12/24 07:14:23;;;;;;;7.12;3.60;;;-2.00;77.90;;;;;;1872743;77;21019;-42
2021/12/24 07:16:52;;;;;;;5.85;3.37;;;-2.00;77.60;;;;;;1872901;77;21493;-43
2021/12/24 07:19:22;;;;;;;6.03;3.52;;;-2.00;77.60;;;;;;1872865;76;21041;-42
2021/12/24 07:21:51;;;;;;;6.87;4.03;;;-1.90;78.10;;;;;;1872887;77;21101;-41
2021/12/24 07:24:21;;;;;;;6.10;3.70;;;-1.90;78.30;;;;;;1872926;76;21039;-42
2021/12/24 07:26:51;;;;;;;4.10;3.40;;;-1.80;78.20;;;;;;1872778;75;21054;-42
2021/12/24 07:29:20;;;;;;;5.62;3.87;;;-1.70;78.00;;;;;;1872782;76;21011;-42
2021/12/24 07:31:49;;;;;;;5.85;4.05;;;-1.70;77.40;;;;;;1872797;77;21038;-42
2021/12/24 07:34:18;;;;;;;7.55;4.60;;;-1.70;77.90;;;;;;1872711;77;21038;-41
2021/12/24 07:36:47;;;;;;;6.95;3.50;;;-1.60;77.10;;;;;;1872862;75;21541;-42
2021/12/24 07:39:17;;;;;;;14.93;4.80;;;-1.60;76.60;;;;;;1880127;76;21204;-41
2021/12/24 07:41:47;;;;;;;5.45;4.47;;;-1.60;77.60;;;;;;1891554;76;21097;-42
2021/12/24 07:44:19;;;;;;;22.67;15.23;;;-1.70;77.10;;;;;;1891507;76;21083;-41
2021/12/24 07:46:52;;;;;;;5.97;5.10;;;-1.60;77.20;;;;;;1891560;75;21096;-41
2021/12/24 07:52:11;;;;;;;5.22;4.15;;;-1.60;76.90;;;;;;1891643;75;21042;-42
2021/12/24 07:54:43;;;;;;;5.70;3.95;;;-1.50;77.40;;;;;;1890193;75;21046;-41
2021/12/24 07:57:14;;;;;;;3.70;2.80;;;-1.50;77.40;;;;;;1891067;75;21046;-42
2021/12/24 07:59:44;;;;;;;4.67;3.75;;;-1.40;77.10;;;;;;1891142;76;21496;-40
2021/12/24 08:02:16;;;;;;;10.35;4.33;;;-1.40;77.00;;;;;;1890909;75;21034;-39
2021/12/24 08:04:46;;;;;;;21.95;5.67;;;-1.40;77.30;;;;;;1891191;76;21108;-39
2021/12/24 08:07:16;;;;;;;3.25;2.95;;;-1.40;77.20;;;;;;1891033;75;21026;-39
2021/12/24 08:09:45;;;;;;;4.85;4.35;;;-1.30;77.00;;;;;;1890980;75;21030;-39
2021/12/24 08:12:15;;;;;;;15.23;5.35;;;-1.30;77.00;;;;;;1891047;75;21097;-39
2021/12/24 08:14:45;;;;;;;7.10;4.70;;;-1.30;77.20;;;;;;1890932;75;21104;-39
2021/12/24 08:17:16;;;;;;;6.72;5.12;;;-1.30;77.60;;;;;;1890985;74;21038;-39
2021/12/24 08:19:45;;;;;;;9.73;6.75;;;-1.20;77.60;;;;;;1891054;76;21032;-40
2021/12/24 08:22:14;;;;;;;6.67;5.30;;;-1.20;77.90;;;;;;1890922;76;20998;-40
2021/12/24 08:24:43;;;;;;;21.90;8.65;;;-1.00;77.90;;;;;;1890877;76;21085;-39
2021/12/24 08:27:13;;;;;;;12.63;8.18;;;-1.00;77.80;;;;;;1890860;76;21148;-40
2021/12/24 08:29:42;;;;;;;7.72;5.33;;;-0.90;77.60;;;;;;1890980;76;21092;-40
2021/12/24 08:32:12;;;;;;;7.60;5.85;;;-0.90;77.60;;;;;;1890873;76;21437;-40
2021/12/24 08:34:42;;;;;;;6.15;5.35;;;-0.90;77.40;;;;;;1890872;76;21143;-40
2021/12/24 08:37:12;;;;;;;9.00;5.60;;;-0.80;78.10;;;;;;1890856;76;21026;-40
2021/12/24 08:39:41;;;;;;;9.18;6.53;;;-0.70;77.90;;;;;;1891078;75;21324;-41
2021/12/24 08:42:11;;;;;;;11.65;5.60;;;-0.70;77.70;;;;;;1891258;76;21171;-40
2021/12/24 08:44:40;;;;;;;12.58;4.55;;;-0.60;77.50;;;;;;1891262;76;21085;-41
2021/12/24 08:47:09;;;;;;;6.70;5.58;;;-0.60;77.50;;;;;;1891137;75;21096;-41
2021/12/24 08:49:38;;;;;;;7.17;5.90;;;-0.70;77.50;;;;;;1891269;76;21011;-41
2021/12/24 08:52:08;;;;;;;13.05;7.30;;;-0.70;78.10;;;;;;1891229;76;21086;-41
2021/12/24 08:54:37;;;;;;;16.07;6.33;;;-0.60;78.30;;;;;;1891206;76;21026;-41
2021/12/24 08:57:07;;;;;;;9.30;6.30;;;-0.60;79.00;;;;;;1891195;76;21088;-40
2021/12/24 08:59:36;;;;;;;3.95;3.60;;;-0.60;79.00;;;;;;1891150;75;21174;-41
2021/12/24 09:02:05;;;;;;;18.67;7.33;;;-0.60;79.50;;;;;;1891314;76;21449;-42
2021/12/24 09:04:35;;;;;;;18.65;8.70;;;-0.60;78.90;;;;;;1891164;76;21128;-41
2021/12/24 09:07:05;;;;;;;9.03;6.80;;;-0.50;79.10;;;;;;1891114;76;21136;-41
2021/12/24 09:09:34;;;;;;;6.53;5.45;;;-0.50;80.10;;;;;;1891379;76;21034;-41
2021/12/24 09:12:04;;;;;;;7.62;5.72;;;-0.50;80.70;;;;;;1891082;76;21022;-41
2021/12/24 09:14:33;;;;;;;8.43;5.70;;;-0.40;79.90;;;;;;1891166;76;21155;-42
2021/12/24 09:17:03;;;;;;;7.37;5.53;;;-0.30;79.90;;;;;;1891201;76;21068;-41
2021/12/24 09:19:34;;;;;;;7.87;6.05;;;-0.20;80.00;;;;;;1891168;76;21006;-41
2021/12/24 09:22:04;;;;;;;5.80;4.00;;;-0.20;79.90;;;;;;1891178;76;21429;-41
2021/12/24 09:24:33;;;;;;;8.45;6.30;;;-0.20;80.50;;;;;;1891221;76;21068;-42
2021/12/24 09:27:03;;;;;;;8.28;6.53;;;-0.20;80.40;;;;;;1891102;76;21100;-41
2021/12/24 09:29:32;;;;;;;11.45;7.92;;;-0.20;80.70;;;;;;1891235;76;21074;-42
2021/12/24 09:32:02;;;;;;;7.25;4.05;;;-0.10;80.40;;;;;;1891067;76;21026;-41
2021/12/24 09:34:31;;;;;;;5.53;4.97;;;-0.10;81.10;;;;;;1891172;76;21026;-41
2021/12/24 09:37:00;;;;;;;11.10;7.72;;;-0.10;81.60;;;;;;1891224;76;21058;-41
2021/12/24 09:39:30;;;;;;;8.48;5.78;;;0.00;80.90;;;;;;1891110;76;21038;-41
2021/12/24 09:42:00;;;;;;;5.45;4.92;;;0.00;81.60;;;;;;1891169;76;21046;-41
2021/12/24 09:44:29;;;;;;;11.20;7.37;;;0.00;82.00;;;;;;1891177;76;21023;-41
2021/12/24 09:46:59;;;;;;;10.68;6.75;;;0.00;81.20;;;;;;1890757;76;21139;-41
2021/12/24 09:49:28;;;;;;;9.55;7.58;;;0.10;81.90;;;;;;1897428;74;21145;-41
2021/12/24 09:51:58;;;;;;;10.48;6.65;;;0.10;83.70;;;;;;1898416;74;21127;-42
2021/12/24 09:54:30;;;;;;;9.80;6.15;;;0.10;82.70;;;;;;1899750;74;21131;-41
2021/12/24 09:57:01;;;;;;;8.08;6.85;;;0.10;84.30;;;;;;1921117;74;21105;-43
2021/12/24 09:59:31;;;;;;;12.15;7.35;;;0.10;82.20;;;;;;1921696;74;21084;-41
2021/12/24 10:02:08;;;;;;;9.95;6.85;;;0.20;82.30;;;;;;1904987;74;21093;-41
2021/12/24 10:04:37;;;;;;;15.83;6.92;;;0.30;81.10;;;;;;1915635;74;21082;-41
2021/12/24 10:07:14;;;;;;;8.25;7.05;;;0.40;80.80;;;;;;1920760;74;21116;-40
2021/12/24 10:09:46;;;;;;;9.20;6.37;;;0.60;80.80;;;;;;1911111;74;21093;-40
2021/12/24 10:12:21;;;;;;;8.50;6.75;;;0.80;80.70;;;;;;1908155;74;21505;-41
2021/12/24 10:14:59;;;;;;;7.28;6.17;;;0.90;81.20;;;;;;1900272;74;21112;-40
2021/12/24 10:17:34;;;;;;;9.28;5.85;;;1.00;80.40;;;;;;1911059;74;21074;-41
2021/12/24 10:20:03;;;;;;;;;;;1.10;80.40;;;;;;1902602;74;21007;-41
2021/12/24 10:22:34;;;;;;;6.17;5.22;;;1.20;81.00;;;;;;1901475;74;20197;-41
2021/12/24 10:25:12;;;;;;;9.85;6.28;;;1.20;80.30;;;;;;1896554;74;21114;-41
2021/12/24 10:27:41;;;;;;;5.55;5.05;;;1.20;80.00;;;;;;1897890;74;21145;-41
2021/12/24 10:30:27;;;;;;;7.95;5.53;;;1.30;79.80;;;;;;1919253;74;21140;-41
2021/12/24 10:32:57;;;;;;;8.98;7.95;;;1.30;79.80;;;;;;1902303;74;21085;-41
2021/12/24 10:35:34;;;;;;;6.40;5.10;;;1.20;80.20;;;;;;1907616;74;21071;-41
2021/12/24 10:38:17;;;;;;;7.87;6.08;;;1.30;80.00;;;;;;1903857;74;21023;-41
2021/12/24 10:40:52;;;;;;;5.00;4.35;;;1.20;79.80;;;;;;1923966;74;22131;-42
2021/12/24 10:43:29;;;;;;;9.73;5.55;;;1.20;81.00;;;;;;1923238;74;21046;-41
2021/12/24 10:46:20;;;;;;;9.50;5.12;;;1.10;80.60;;;;;;1924036;74;21054;-41
2021/12/24 10:49:38;;;;;;;8.50;4.83;;;1.10;80.80;;;;;;1924020;74;21002;-41
2021/12/24 10:52:12;;;;;;;6.20;4.87;;;1.10;81.90;;;;;;1916549;74;21078;-41
2021/12/24 10:54:32;;;;;;;8.50;5.33;;;1.00;82.70;;;;;;1922536;74;21023;-41
2021/12/24 10:57:15;;;;;;;7.05;4.95;;;1.00;81.70;;;;;;1923884;74;21023;-40
2021/12/24 10:59:49;;;;;;;9.65;7.65;;;1.00;82.20;;;;;;1920982;74;21023;-40
2021/12/24 11:02:23;;;;;;;9.23;5.85;;;1.20;82.00;;;;;;1921727;74;21019;-40
2021/12/24 11:04:53;;;;;;;11.53;9.43;;;1.30;84.50;;;;;;1918615;74;21030;-41
2021/12/24 11:07:42;;;;;;;9.48;6.80;;;1.30;83.80;;;;;;1898527;74;21130;-42
2021/12/24 11:10:23;;;;;;;12.73;6.62;;;1.40;82.90;;;;;;1908025;74;21039;-42
2021/12/24 11:13:02;;;;;;;5.28;3.90;;;1.50;83.50;;;;;;1915789;74;21078;-42
2021/12/24 11:15:35;;;;;;;5.28;3.27;;;1.50;83.90;;;;;;1906377;74;21088;-41
2021/12/24 11:18:19;;;;;;;2.40;2.17;;;1.60;82.70;;;;;;1902103;74;21089;-41
2021/12/24 11:21:03;;;;;;;1.90;1.80;;;1.70;83.20;;;;;;1909163;74;21496;-40
2021/12/24 11:23:37;;;;;;;2.67;2.10;;;1.80;83.20;;;;;;1908989;74;21063;-40
2021/12/24 11:26:11;;;;;;;2.05;1.85;;;1.80;83.00;;;;;;1911771;74;21022;-40
2021/12/24 11:28:44;;;;;;;3.15;2.15;;;1.80;83.10;;;;;;1923847;74;21023;-40
2021/12/24 11:31:17;;;;;;;6.05;1.92;;;1.90;82.90;;;;;;1890970;76;21038;-39
2021/12/24 11:33:48;;;;;;;3.65;2.02;;;1.90;82.60;;;;;;1890803;76;21457;-39
2021/12/24 11:36:18;;;;;;;3.15;2.77;;;1.90;82.70;;;;;;1891020;76;21116;-39
2021/12/24 11:38:50;;;;;;;5.00;3.37;;;1.90;82.20;;;;;;1890823;76;21143;-40
2021/12/24 11:41:21;;;;;;;9.05;2.98;;;1.90;82.00;;;;;;1885361;75;21059;-42
2021/12/24 11:43:52;;;;;;;5.28;2.77;;;2.00;82.80;;;;;;1872174;77;21086;-41
2021/12/24 11:46:23;;;;;;;6.20;2.70;;;2.00;82.90;;;;;;1872012;75;21098;-40
2021/12/24 11:48:55;;;;;;;5.20;2.65;;;2.10;82.70;;;;;;1872105;77;21176;-39
2021/12/24 11:51:27;;;;;;;3.52;2.00;;;2.20;82.50;;;;;;1872088;75;21122;-40
2021/12/24 11:54:05;;;;;;;8.05;4.05;;;2.20;83.20;;;;;;1872058;77;21027;-40
2021/12/24 11:56:54;;;;;;;7.37;4.85;;;2.20;82.40;;;;;;1872157;77;21098;-41
2021/12/24 11:59:40;;;;;;;7.83;3.27;;;2.20;81.80;;;;;;1872202;76;21110;-40
2021/12/24 12:02:09;;;;;;;4.10;3.17;;;2.30;81.90;;;;;;1872225;77;21094;-40
2021/12/24 12:04:39;;;;;;;5.17;3.70;;;2.30;81.80;;;;;;1872118;77;21082;-41
2021/12/24 12:07:18;;;;;;;4.08;3.05;;;2.40;81.90;;;;;;1872161;77;21086;-41
2021/12/24 12:09:48;;;;;;;5.97;3.30;;;2.40;82.00;;;;;;1872032;76;21007;-42
2021/12/24 12:12:18;;;;;;;6.58;3.80;;;2.50;81.80;;;;;;1871968;76;21054;-41
2021/12/24 12:14:48;;;;;;;6.72;3.83;;;2.50;81.70;;;;;;1871017;76;21117;-41
2021/12/24 12:17:26;;;;;;;2.15;1.92;;;2.50;82.60;;;;;;1871999;77;21031;-41
2021/12/24 12:20:00;;;;;;;3.60;2.90;;;2.50;82.70;;;;;;1872208;77;21035;-41
2021/12/24 12:25:13;;;;;;;3.27;2.12;;;2.40;82.90;;;;;;1871955;76;21030;-41
2021/12/24 12:27:45;;;;;;;4.20;2.85;;;2.40;83.20;;;;;;1888262;75;21077;-40
2021/12/24 12:30:29;;;;;;;3.45;1.85;;;2.40;83.60;;;;;;1903642;74;21090;-41
2021/12/24 12:33:07;;;;;;;3.05;2.10;;;2.40;82.90;;;;;;1904656;75;21074;-40
2021/12/24 12:35:44;;;;;;;2.87;1.60;;;2.40;82.90;;;;;;1905343;75;21042;-41
2021/12/24 12:38:36;;;;;;;1.37;1.27;;;2.40;83.10;;;;;;1895863;74;21101;-41
2021/12/24 12:41:38;;;;;;;3.47;1.52;;;2.40;83.20;;;;;;1905440;75;21023;-42
2021/12/24 12:44:10;;;;;;;1.80;1.27;;;2.40;83.20;;;;;;1905492;75;21117;-41
2021/12/24 12:46:43;;;;;;;2.60;1.30;;;2.50;83.10;;;;;;1905420;74;21114;-42
2021/12/24 12:49:16;;;;;;;3.22;1.80;;;2.50;82.80;;;;;;1905411;75;21031;-42
2021/12/24 12:51:57;;;;;;;2.55;1.70;;;2.50;82.60;;;;;;1905445;75;21101;-41
2021/12/24 12:54:38;;;;;;;2.17;1.55;;;2.50;82.30;;;;;;1905349;75;21028;-42
2021/12/24 12:57:15;;;;;;;3.37;2.27;;;2.60;82.30;;;;;;1905615;75;21015;-40
2021/12/24 13:00:12;;;;;;;1.65;1.55;;;2.60;82.00;;;;;;1905527;75;21034;-40
2021/12/24 13:05:45;;;;;;;2.37;1.50;;;2.60;82.10;;;;;;1905410;75;20125;-40
2021/12/24 13:08:21;;;;;;;1.93;1.80;;;2.70;81.90;;;;;;1905685;75;21156;-40
2021/12/24 13:11:04;;;;;;;3.00;2.27;;;2.60;81.70;;;;;;1905386;75;21453;-40
2021/12/24 13:13:53;;;;;;;8.43;5.62;;;2.70;81.70;;;;;;1905283;74;21011;-40
2021/12/24 13:16:32;;;;;;;6.58;4.33;;;2.60;81.60;;;;;;1905417;75;21047;-41
2021/12/24 13:24:20;;;;;;;7.53;4.53;;;2.50;81.80;;;;;;1905335;75;20105;-40
2021/12/24 13:26:50;;;;;;;4.20;3.40;;;2.50;82.30;;;;;;1905304;75;21052;-41
2021/12/24 13:29:23;;;;;;;13.03;7.22;;;2.40;82.00;;;;;;1905472;75;21071;-40
2021/12/24 13:31:56;;;;;;;5.47;3.72;;;2.40;82.30;;;;;;1905382;74;21035;-41
2021/12/24 13:34:26;;;;;;;7.28;4.30;;;2.30;82.70;;;;;;1905275;75;21017;-41
2021/12/24 13:36:57;;;;;;;7.50;3.95;;;2.30;82.40;;;;;;1905470;75;21027;-40
2021/12/24 13:39:26;;;;;;;7.20;4.92;;;2.20;82.60;;;;;;1905186;75;21088;-40
2021/12/24 13:42:09;;;;;;;6.53;5.03;;;2.20;82.90;;;;;;1906641;74;21023;-41
2021/12/24 13:44:39;;;;;;;5.08;3.52;;;2.10;82.60;;;;;;1923139;74;21109;-40
2021/12/24 13:55:35;;;;;;;4.42;3.30;;;2.00;84.20;;;;;;1924705;74;21112;-41
2021/12/24 13:58:07;;;;;;;8.38;5.50;;;2.00;86.10;;;;;;1924898;74;21096;-40
2021/12/24 14:00:40;;;;;;;7.20;5.30;;;1.90;85.80;;;;;;1924905;74;21104;-40
2021/12/24 14:03:12;;;;;;;7.15;4.90;;;1.80;86.00;;;;;;1924874;74;21080;-42
2021/12/24 14:05:52;;;;;;;7.20;5.03;;;1.70;87.40;;;;;;1924661;74;21077;-40
2021/12/24 14:08:30;;;;;;;8.30;5.20;;;1.70;86.60;;;;;;1924687;74;21084;-41
2021/12/24 14:11:11;;;;;;;16.55;8.75;;;1.60;86.70;;;;;;1924634;74;21023;-41
2021/12/24 14:13:56;;;;;;;8.08;6.10;;;1.60;86.10;;;;;;1924715;74;21089;-41
2021/12/24 14:19:17;;;;;;;8.93;6.58;;;1.60;85.20;;;;;;1924675;74;21038;-40
2021/12/24 14:21:47;;;;;;;8.60;5.92;;;1.50;86.00;;;;;;1924832;74;20991;-41
2021/12/24 14:24:28;;;;;;;10.45;6.00;;;1.50;85.20;;;;;;1924774;74;21080;-41
2021/12/24 14:27:00;;;;;;;10.50;6.00;;;1.60;84.90;;;;;;1924822;74;21085;-40
2021/12/24 14:29:32;;;;;;;12.35;7.58;;;1.60;84.90;;;;;;1847139;77;21124;-40
2021/12/24 14:32:10;;;;;;;13.05;6.97;;;1.60;84.70;;;;;;1887023;76;21071;-40
2021/12/24 14:34:45;;;;;;;12.65;7.05;;;1.70;85.50;;;;;;1878108;76;21152;-40
2021/12/24 14:37:27;;;;;;;12.03;7.37;;;1.70;84.60;;;;;;1878099;76;21058;-40
2021/12/24 14:40:11;;;;;;;9.85;6.60;;;1.70;85.20;;;;;;1877982;76;21011;-41
2021/12/24 14:42:51;;;;;;;11.30;6.80;;;1.70;84.70;;;;;;1876744;76;21223;-40
2021/12/24 14:45:35;;;;;;;12.03;6.97;;;1.80;84.60;;;;;;1871416;77;21062;-41
2021/12/24 14:48:12;;;;;;;11.40;7.75;;;1.80;86.40;;;;;;1871298;77;21031;-41
2021/12/24 14:50:50;;;;;;;12.47;8.70;;;1.80;84.70;;;;;;1871315;77;21023;-41
2021/12/24 14:53:25;;;;;;;17.05;8.78;;;1.80;86.60;;;;;;1871386;77;21082;-40
2021/12/24 14:55:56;;;;;;;13.00;7.45;;;1.80;84.90;;;;;;1871363;76;21112;-41
2021/12/24 14:58:33;;;;;;;17.60;9.48;;;1.70;85.10;;;;;;1871378;77;21493;-40
2021/12/24 15:01:17;;;;;;;15.10;9.63;;;1.70;85.00;;;;;;1871332;77;21067;-41
2021/12/24 15:03:49;;;;;;;15.65;9.30;;;1.70;85.00;;;;;;1871309;77;21121;-41